Time;durP1;ratioP1;P1;durP2;ratioP2;P2;SDS_P1;SDS_P2;PMS_P1;PMS_P2;Temp;Humidity;BMP_temperature;BMP_pressure;BME280_temperature;BME280_humidity;BME280_pressure;Samples;Min_cycle;Max_cycle;Signal;HPM_P1;HPM_P2
2020/12/09 00:00:32;;;;;;;27.87;16.53;;;;;;;2.88;100.00;95638.06;5071974;28;20200;-67
2020/12/09 00:03:00;;;;;;;30.80;17.90;;;;;;;2.97;100.00;95639.16;5072098;28;20201;-67
2020/12/09 00:05:28;;;;;;;47.57;25.60;;;;;;;2.98;100.00;95633.03;5072109;28;20236;-66
2020/12/09 00:07:56;;;;;;;52.93;29.13;;;;;;;2.99;100.00;95631.97;5072017;28;20697;-66
2020/12/09 00:10:24;;;;;;;52.80;28.33;;;;;;;3.04;100.00;95629.47;5071874;28;20203;-61
2020/12/09 00:12:51;;;;;;;64.87;31.13;;;;;;;2.97;100.00;95636.59;5071742;28;20649;-66
2020/12/09 00:15:19;;;;;;;62.47;33.77;;;;;;;3.11;100.00;95637.00;5071959;28;20258;-65
2020/12/09 00:17:52;;;;;;;70.77;35.53;;;;;;;3.18;100.00;95627.31;5071813;28;20608;-65
2020/12/09 00:20:21;;;;;;;84.13;38.43;;;;;;;3.15;100.00;95614.94;5072158;28;20211;-66
2020/12/09 00:22:49;;;;;;;51.80;26.63;;;;;;;3.29;100.00;95629.72;5071813;28;20279;-65
2020/12/09 00:25:16;;;;;;;46.00;26.77;;;;;;;3.30;100.00;95631.25;5071828;28;20223;-65
2020/12/09 00:28:01;;;;;;;44.37;24.43;;;;;;;3.26;100.00;95637.13;5071616;28;20277;-65
2020/12/09 00:30:30;;;;;;;41.43;23.03;;;;;;;3.36;100.00;95643.13;5071627;28;20215;-66
2020/12/09 00:32:59;;;;;;;36.73;21.50;;;;;;;3.39;100.00;95637.50;5071628;28;20202;-65
2020/12/09 00:35:26;;;;;;;36.13;19.40;;;;;;;3.35;100.00;95631.31;5071657;28;20227;-66
2020/12/09 00:37:53;;;;;;;28.73;17.40;;;;;;;3.39;100.00;95619.53;5070775;28;20663;-64
2020/12/09 00:40:20;;;;;;;34.70;19.50;;;;;;;3.33;100.00;95624.88;5071615;28;20314;-65
2020/12/09 00:42:48;;;;;;;43.23;20.80;;;;;;;3.29;100.00;95623.78;5071473;28;20202;-66
2020/12/09 00:45:15;;;;;;;41.90;21.37;;;;;;;3.36;100.00;95616.66;5071205;28;20710;-65
2020/12/09 00:47:43;;;;;;;51.27;25.67;;;;;;;3.31;100.00;95612.28;5071391;28;20203;-65
2020/12/09 00:53:40;;;;;;;44.30;23.07;;;;;;;3.37;100.00;95608.72;5070987;28;20219;-66
2020/12/09 00:56:09;;;;;;;44.37;23.37;;;;;;;3.38;100.00;95618.00;5070932;28;20192;-66
2020/12/09 00:58:37;;;;;;;36.83;21.20;;;;;;;3.52;100.00;95610.66;5071097;28;20241;-66
2020/12/09 01:01:05;;;;;;;33.70;18.73;;;;;;;3.43;100.00;95618.03;5070898;28;20256;-65
2020/12/09 01:03:34;;;;;;;29.97;17.30;;;;;;;3.43;100.00;95612.13;5070711;28;20234;-66
2020/12/09 01:06:01;;;;;;;38.43;22.07;;;;;;;3.47;100.00;95608.81;5070993;28;20273;-66
2020/12/09 01:08:29;;;;;;;30.77;15.53;;;;;;;3.41;100.00;95607.22;5070777;28;20189;-66
2020/12/09 01:10:56;;;;;;;22.50;14.23;;;;;;;3.45;100.00;95605.72;5070720;28;20192;-65
2020/12/09 01:13:27;;;;;;;28.33;18.40;;;;;;;3.33;100.00;95599.19;5070724;28;20235;-66
2020/12/09 01:15:54;;;;;;;25.17;15.07;;;;;;;3.41;100.00;95601.31;5070699;28;20196;-65
2020/12/09 01:18:40;;;;;;;25.70;14.93;;;;;;;3.33;100.00;95597.41;5070701;28;20203;-65
2020/12/09 01:21:08;;;;;;;24.93;15.10;;;;;;;3.33;100.00;95589.69;5070458;28;20200;-65
2020/12/09 01:23:34;;;;;;;30.07;16.50;;;;;;;3.33;100.00;95594.84;5070608;28;20255;-66
2020/12/09 01:26:02;;;;;;;28.10;15.87;;;;;;;3.45;100.00;95592.88;5070408;28;20661;-65
2020/12/09 01:29:17;;;;;;;26.70;15.27;;;;;;;3.43;100.00;95589.78;5070499;28;20200;-65
2020/12/09 01:31:47;;;;;;;29.53;16.83;;;;;;;3.46;100.00;95584.13;5070470;28;20620;-65
2020/12/09 01:34:16;;;;;;;30.77;16.57;;;;;;;3.50;100.00;95588.78;5070603;28;20203;-65
2020/12/09 01:36:43;;;;;;;27.17;16.07;;;;;;;3.45;100.00;95585.16;5070609;28;20207;-66
2020/12/09 01:39:12;;;;;;;34.47;18.77;;;;;;;3.49;100.00;95571.84;5070218;28;20562;-66
2020/12/09 01:41:39;;;;;;;35.67;20.27;;;;;;;3.53;100.00;95578.81;5070230;28;20201;-66
2020/12/09 01:44:10;;;;;;;37.70;20.53;;;;;;;3.63;100.00;95578.88;5070187;28;20226;-66
2020/12/09 01:46:40;;;;;;;36.83;20.23;;;;;;;3.63;100.00;95575.53;5070307;28;20199;-66
2020/12/09 01:49:07;;;;;;;44.37;24.80;;;;;;;3.78;100.00;95555.06;5069360;28;20236;-66
2020/12/09 01:51:35;;;;;;;43.27;24.93;;;;;;;3.90;100.00;95561.56;5070143;28;20654;-66
2020/12/09 01:54:03;;;;;;;49.13;26.63;;;;;;;4.01;100.00;95562.38;5070175;28;20664;-66
2020/12/09 01:59:53;;;;;;;47.73;26.93;;;;;;;4.05;100.00;95571.13;5069962;28;20275;-67
2020/12/09 02:02:20;;;;;;;46.57;26.43;;;;;;;4.21;100.00;95564.28;5069955;28;20262;-66
2020/12/09 02:04:48;;;;;;;45.23;25.03;;;;;;;4.29;100.00;95558.63;5069916;28;20232;-66
2020/12/09 02:07:16;;;;;;;50.93;30.10;;;;;;;4.38;100.00;95558.94;5070189;28;20274;-66
2020/12/09 02:09:44;;;;;;;43.50;23.47;;;;;;;4.42;100.00;95557.41;5070015;28;20196;-66
2020/12/09 02:12:11;;;;;;;38.83;23.93;;;;;;;4.43;100.00;95556.38;5069866;28;20205;-65
2020/12/09 02:14:39;;;;;;;40.07;23.73;;;;;;;4.46;100.00;95551.50;5069994;28;20231;-65
2020/12/09 02:17:06;;;;;;;43.00;24.83;;;;;;;4.54;100.00;95552.81;5070252;28;20196;-66
2020/12/09 02:19:35;;;;;;;45.07;27.00;;;;;;;4.59;100.00;95561.31;5069854;28;20242;-66
2020/12/09 02:22:12;;;;;;;41.67;23.03;;;;;;;4.59;100.00;95558.72;5070085;28;20196;-66
2020/12/09 02:24:39;;;;;;;38.17;22.90;;;;;;;4.62;100.00;95560.81;5069734;28;20227;-66
2020/12/09 02:27:07;;;;;;;44.67;25.50;;;;;;;4.62;100.00;95555.69;5069996;28;20578;-65
2020/12/09 02:29:35;;;;;;;41.07;22.90;;;;;;;4.71;100.00;95548.22;5070081;28;20626;-65
2020/12/09 02:32:02;;;;;;;37.47;22.00;;;;;;;4.72;100.00;95549.78;5069957;28;20204;-65
2020/12/09 02:34:31;;;;;;;44.20;23.93;;;;;;;4.78;100.00;95559.81;5070150;28;20196;-66
2020/12/09 02:36:59;;;;;;;39.73;21.43;;;;;;;4.78;100.00;95556.47;5070509;28;20287;-65
2020/12/09 02:39:34;;;;;;;45.50;25.43;;;;;;;4.73;100.00;95556.47;5069646;28;20708;-66
2020/12/09 02:42:03;;;;;;;37.03;22.13;;;;;;;4.83;100.00;95563.44;5069709;28;20199;-67
2020/12/09 02:44:31;;;;;;;36.67;22.17;;;;;;;4.87;100.00;95572.97;5069793;28;20259;-66
2020/12/09 02:47:00;;;;;;;36.57;22.63;;;;;;;4.92;100.00;95577.34;5069664;28;20247;-66
2020/12/09 02:49:28;;;;;;;38.97;22.60;;;;;;;4.86;100.00;95574.00;5069731;28;20196;-66
2020/12/09 02:51:55;;;;;;;34.97;22.07;;;;;;;4.85;100.00;95569.88;5070009;28;20250;-66
2020/12/09 02:54:23;;;;;;;30.60;18.50;;;;;;;4.83;100.00;95577.09;5069564;28;20199;-66
2020/12/09 02:57:12;;;;;;;33.73;19.77;;;;;;;4.88;100.00;95573.75;5069503;28;20246;-66
2020/12/09 02:59:39;;;;;;;41.77;24.13;;;;;;;4.89;100.00;95568.31;5069511;28;20196;-65
2020/12/09 03:02:06;;;;;;;39.97;22.70;;;;;;;4.92;100.00;95569.63;5072087;28;20200;-66
2020/12/09 03:04:33;;;;;;;38.27;22.60;;;;;;;5.14;100.00;95573.50;5073089;28;20231;-66
2020/12/09 03:07:00;;;;;;;36.73;22.33;;;;;;;5.10;100.00;95575.06;5073010;28;20196;-65
2020/12/09 03:13:20;;;;;;;33.60;20.47;;;;;;;5.06;100.00;95586.91;5073126;28;20200;-66
2020/12/09 03:15:48;;;;;;;33.30;18.73;;;;;;;5.09;100.00;95586.38;5073126;28;20188;-66
2020/12/09 03:18:16;;;;;;;36.30;22.87;;;;;;;5.09;100.00;95577.88;5073064;28;20196;-65
2020/12/09 03:20:45;;;;;;;34.60;20.70;;;;;;;5.14;100.00;95578.66;5072885;28;20220;-66
2020/12/09 03:23:14;;;;;;;33.70;20.73;;;;;;;5.12;100.00;95577.38;5072813;28;20195;-67
2020/12/09 03:25:42;;;;;;;35.50;22.73;;;;;;;5.18;100.00;95577.13;5072681;28;20229;-66
2020/12/09 03:28:10;;;;;;;33.97;21.27;;;;;;;5.22;100.00;95574.03;5072852;28;20208;-66
2020/12/09 03:30:38;;;;;;;33.63;21.13;;;;;;;5.21;100.00;95578.41;5072812;28;20320;-67
2020/12/09 03:33:06;;;;;;;32.47;19.97;;;;;;;5.21;100.00;95568.13;5072763;28;20296;-66
2020/12/09 03:35:34;;;;;;;29.00;19.37;;;;;;;5.22;100.00;95568.88;5072717;28;20254;-67
2020/12/09 03:38:02;;;;;;;37.43;21.80;;;;;;;5.30;100.00;95560.63;5072692;28;20249;-67
2020/12/09 03:40:31;;;;;;;51.57;27.80;;;;;;;5.34;100.00;95567.59;5072616;28;20239;-67
2020/12/09 03:43:01;;;;;;;53.67;28.77;;;;;;;5.36;100.00;95560.38;5072452;28;20200;-66
2020/12/09 03:45:29;;;;;;;37.40;22.63;;;;;;;5.34;100.00;95566.81;5072394;28;20317;-63
2020/12/09 03:47:57;;;;;;;25.70;15.50;;;;;;;5.43;100.00;95550.56;5072324;28;20216;-63
2020/12/09 03:50:25;;;;;;;23.77;16.53;;;;;;;5.36;100.00;95557.81;5072515;28;20219;-65
2020/12/09 03:52:54;;;;;;;23.17;15.00;;;;;;;5.28;100.00;95555.00;5072401;28;20211;-65
2020/12/09 03:55:22;;;;;;;23.43;15.77;;;;;;;5.32;100.00;95543.13;5072355;28;20254;-67
2020/12/09 03:57:51;;;;;;;44.03;25.53;;;;;;;5.36;100.00;95549.31;5072176;28;20200;-67
2020/12/09 04:00:19;;;;;;;32.03;19.40;;;;;;;5.31;100.00;95544.16;5072033;28;20667;-67
2020/12/09 04:02:52;;;;;;;35.47;18.63;;;;;;;5.16;100.00;95550.06;5072516;28;20201;-66
2020/12/09 04:05:20;;;;;;;28.27;16.50;;;;;;;5.28;100.00;95552.41;5072045;28;20228;-65
2020/12/09 04:07:47;;;;;;;26.33;16.37;;;;;;;5.15;100.00;95559.59;5072202;28;20196;-67
2020/12/09 04:10:13;;;;;;;24.70;15.67;;;;;;;5.20;100.00;95556.25;5071990;28;20189;-63
2020/12/09 04:12:40;;;;;;;29.93;17.30;;;;;;;5.27;100.00;95556.00;5071133;28;20307;-67
2020/12/09 04:15:07;;;;;;;25.37;15.50;;;;;;;5.37;100.00;95553.44;5071738;28;20188;-67
2020/12/09 04:17:34;;;;;;;26.10;16.33;;;;;;;5.30;100.00;95547.75;5071899;28;20193;-65
2020/12/09 04:20:01;;;;;;;34.90;19.50;;;;;;;5.30;100.00;95551.09;5071802;28;20199;-66
2020/12/09 04:22:28;;;;;;;27.33;16.63;;;;;;;5.26;100.00;95559.63;5072123;28;20207;-65
2020/12/09 04:24:55;;;;;;;29.13;16.57;;;;;;;5.35;100.00;95560.63;5071391;28;20307;-65
2020/12/09 04:27:22;;;;;;;37.23;19.67;;;;;;;5.36;100.00;95564.75;5071384;28;20200;-66
2020/12/09 04:29:49;;;;;;;56.60;26.77;;;;;;;5.33;100.00;95565.28;5071682;28;20208;-66
2020/12/09 04:32:16;;;;;;;43.50;24.40;;;;;;;5.45;100.00;95555.47;5071486;28;20203;-66
2020/12/09 04:34:43;;;;;;;36.37;21.03;;;;;;;5.42;100.00;95550.84;5071552;28;20197;-62
2020/12/09 04:37:11;;;;;;;53.13;29.63;;;;;;;5.34;100.00;95546.19;5071532;28;20668;-67
2020/12/09 04:39:39;;;;;;;48.90;29.40;;;;;;;5.35;100.00;95537.44;5071354;28;20228;-66
2020/12/09 04:42:06;;;;;;;45.63;25.53;;;;;;;5.26;100.00;95539.00;5071491;28;20201;-66
2020/12/09 04:44:33;;;;;;;34.97;20.40;;;;;;;5.38;100.00;95542.84;5071273;28;21022;-66
2020/12/09 04:47:04;;;;;;;34.63;20.10;;;;;;;5.37;100.00;95535.41;5071461;28;20199;-65
2020/12/09 04:49:41;;;;;;;29.43;18.10;;;;;;;5.39;100.00;95525.59;5071720;28;20283;-67
2020/12/09 04:52:31;;;;;;;29.03;16.77;;;;;;;5.38;100.00;95531.78;5071404;28;20196;-67
2020/12/09 04:55:06;;;;;;;29.40;16.33;;;;;;;5.29;100.00;95533.31;5071565;28;20193;-64
2020/12/09 04:57:43;;;;;;;32.47;17.67;;;;;;;5.28;100.00;95531.81;5071722;28;20204;-66
2020/12/09 05:00:11;;;;;;;35.30;18.80;;;;;;;5.32;100.00;95535.41;5071332;28;20196;-66
2020/12/09 05:02:49;;;;;;;37.80;20.50;;;;;;;5.37;100.00;95532.81;5071048;28;20199;-67
2020/12/09 05:05:18;;;;;;;40.73;20.10;;;;;;;5.28;100.00;95542.09;5070880;28;20228;-67
2020/12/09 05:07:49;;;;;;;53.37;23.00;;;;;;;5.19;100.00;95540.03;5070864;28;20203;-67
2020/12/09 05:10:18;;;;;;;38.67;19.93;;;;;;;5.24;100.00;95541.06;5070974;28;20647;-66
2020/12/09 05:12:46;;;;;;;44.60;18.90;;;;;;;5.23;100.00;95542.09;5070726;28;20198;-65
2020/12/09 05:15:17;;;;;;;39.50;18.30;;;;;;;5.31;100.00;95544.16;5071167;28;20200;-66
2020/12/09 05:18:00;;;;;;;37.27;18.37;;;;;;;5.29;100.00;95530.75;5071269;28;20208;-63
2020/12/09 05:20:30;;;;;;;38.50;21.10;;;;;;;5.47;100.00;95525.09;5070821;28;20199;-67
2020/12/09 05:22:58;;;;;;;33.97;20.20;;;;;;;5.43;100.00;95514.50;5070677;28;20192;-66
2020/12/09 05:25:27;;;;;;;40.70;23.63;;;;;;;5.42;100.00;95512.19;5072014;28;20225;-63
2020/12/09 05:27:54;;;;;;;38.90;23.07;;;;;;;5.33;100.00;95511.94;5071268;28;20199;-67
2020/12/09 05:30:40;;;;;;;38.87;21.87;;;;;;;5.36;100.00;95511.44;5070599;28;20291;-66
2020/12/09 05:33:09;;;;;;;35.33;20.53;;;;;;;5.29;100.00;95494.69;5070300;28;20200;-66
2020/12/09 05:35:37;;;;;;;38.87;23.83;;;;;;;5.33;100.00;95486.16;5070568;28;20257;-65
2020/12/09 05:38:12;;;;;;;32.63;19.37;;;;;;;5.31;100.00;95497.78;5070126;28;20199;-66
2020/12/09 05:40:41;;;;;;;39.23;20.40;;;;;;;5.28;100.00;95500.88;5070118;28;20230;-67
2020/12/09 05:43:08;;;;;;;46.33;21.83;;;;;;;5.22;100.00;95513.00;5070458;28;20196;-66
2020/12/09 05:45:35;;;;;;;39.23;20.10;;;;;;;5.27;100.00;95522.53;5070447;28;20228;-67
2020/12/09 05:48:27;;;;;;;29.83;17.87;;;;;;;5.12;100.00;95523.31;5070243;28;20659;-66
2020/12/09 05:50:56;;;;;;;32.17;16.63;;;;;;;5.31;100.00;95526.13;5068763;28;20200;-66
2020/12/09 05:53:24;;;;;;;36.60;20.10;;;;;;;5.25;100.00;95527.16;5070151;28;20573;-66
2020/12/09 05:55:54;;;;;;;31.77;18.40;;;;;;;5.22;100.00;95533.59;5070177;28;20684;-66
2020/12/09 05:58:26;;;;;;;41.80;23.43;;;;;;;5.30;100.00;95535.66;5070340;28;20196;-67
2020/12/09 06:01:11;;;;;;;35.13;19.97;;;;;;;5.30;100.00;95545.19;5070125;28;20242;-66
2020/12/09 06:03:39;;;;;;;39.97;25.23;;;;;;;5.24;100.00;95556.50;5070404;28;20188;-66
2020/12/09 06:06:14;;;;;;;50.03;31.77;;;;;;;5.16;100.00;95553.44;5069792;28;20666;-66
2020/12/09 06:08:44;;;;;;;57.33;31.13;;;;;;;5.16;100.00;95550.84;5070064;28;20279;-67
2020/12/09 06:11:13;;;;;;;53.13;30.33;;;;;;;5.16;100.00;95550.84;5070149;28;20271;-66
2020/12/09 06:13:40;;;;;;;42.60;23.33;;;;;;;5.13;100.00;95545.44;5069827;28;20207;-65
2020/12/09 06:16:08;;;;;;;49.77;26.23;;;;;;;5.24;100.00;95548.78;5069897;28;20738;-67
2020/12/09 06:18:38;;;;;;;114.57;55.47;;;;;;;5.36;100.00;95546.72;5069739;28;20264;-67
2020/12/09 06:21:06;;;;;;;51.10;29.43;;;;;;;5.34;100.00;95551.34;5069706;28;20733;-67
2020/12/09 06:23:37;;;;;;;48.67;28.07;;;;;;;5.22;100.00;95553.44;5069721;28;20241;-67
2020/12/09 06:26:05;;;;;;;44.63;25.20;;;;;;;5.20;100.00;95548.53;5069781;28;20243;-67
2020/12/09 06:28:36;;;;;;;43.53;21.80;;;;;;;5.32;100.00;95548.28;5069738;28;20279;-67
2020/12/09 06:31:20;;;;;;;43.70;24.00;;;;;;;5.41;100.00;95544.16;5069876;28;20726;-67
2020/12/09 06:33:49;;;;;;;79.47;38.27;;;;;;;5.36;100.00;95544.16;5069837;28;20192;-67
2020/12/09 06:36:18;;;;;;;69.83;34.20;;;;;;;5.38;100.00;95554.97;5071687;28;20223;-66
2020/12/09 06:39:12;;;;;;;54.30;28.23;;;;;;;5.30;100.00;95550.34;5073684;28;20645;-68
2020/12/09 06:42:04;;;;;;;82.57;39.30;;;;;;;5.27;100.00;95545.72;5073548;28;20299;-68
2020/12/09 06:44:33;;;;;;;49.63;24.97;;;;;;;5.41;100.00;95546.72;5073402;28;20196;-68
2020/12/09 06:47:01;;;;;;;34.37;19.17;;;;;;;5.34;100.00;95541.06;5073418;28;20197;-66
2020/12/09 06:49:38;;;;;;;42.27;21.57;;;;;;;5.20;100.00;95535.66;5073336;28;20740;-67
2020/12/09 06:52:27;;;;;;;113.60;45.97;;;;;;;5.23;100.00;95536.94;5073458;28;20275;-67
2020/12/09 06:54:54;;;;;;;49.80;24.90;;;;;;;5.33;100.00;95539.53;5070472;28;20215;-67
2020/12/09 06:57:25;;;;;;;40.37;22.10;;;;;;;5.24;100.00;95538.47;5073212;28;20195;-66
2020/12/09 07:00:15;;;;;;;62.53;31.00;;;;;;;5.26;100.00;95544.94;5073524;28;20215;-66
2020/12/09 07:02:43;;;;;;;76.43;35.63;;;;;;;5.26;100.00;95550.09;5073320;28;20192;-67
2020/12/09 07:05:13;;;;;;;78.50;33.10;;;;;;;5.33;100.00;95544.69;5073112;28;20319;-68
2020/12/09 07:07:42;;;;;;;92.97;39.33;;;;;;;5.13;100.00;95551.34;5073281;28;20196;-65
2020/12/09 07:10:24;;;;;;;124.37;47.43;;;;;;;5.23;100.00;95548.00;5073217;28;20192;-67
2020/12/09 07:13:00;;;;;;;79.63;34.43;;;;;;;5.20;100.00;95551.09;5073113;28;20203;-67
2020/12/09 07:15:28;;;;;;;164.70;61.33;;;;;;;5.24;100.00;95551.34;5073247;28;20196;-67
2020/12/09 07:17:55;;;;;;;134.27;48.43;;;;;;;5.27;100.00;95543.91;5073115;28;20196;-67
2020/12/09 07:20:22;;;;;;;71.30;29.30;;;;;;;5.31;100.00;95536.44;5073017;28;20200;-66
2020/12/09 07:22:49;;;;;;;74.33;35.73;;;;;;;5.46;100.00;95536.41;5072750;28;20609;-64
2020/12/09 07:25:16;;;;;;;44.13;20.80;;;;;;;5.48;100.00;95534.38;5072636;28;20230;-66
2020/12/09 07:27:44;;;;;;;79.53;33.43;;;;;;;5.41;100.00;95526.88;5073036;28;20702;-64
2020/12/09 07:30:15;;;;;;;47.70;25.50;;;;;;;5.55;100.00;95522.75;5072621;28;20212;-68
2020/12/09 07:32:43;;;;;;;55.43;24.67;;;;;;;5.54;100.00;95526.34;5072749;28;20671;-67
2020/12/09 07:35:11;;;;;;;64.63;31.27;;;;;;;5.56;100.00;95523.53;5072766;28;20200;-67
2020/12/09 07:37:41;;;;;;;52.10;24.40;;;;;;;5.64;100.00;95525.56;5072480;28;20207;-67
2020/12/09 07:40:14;;;;;;;61.77;26.40;;;;;;;5.59;100.00;95531.50;5072225;28;20298;-67
2020/12/09 07:42:40;;;;;;;88.17;38.33;;;;;;;5.59;100.00;95534.06;5072737;28;20236;-67
2020/12/09 07:45:13;;;;;;;70.90;32.87;;;;;;;5.56;100.00;95529.44;5072352;28;20597;-68
2020/12/09 07:47:39;;;;;;;38.97;21.37;;;;;;;5.73;100.00;95523.25;5071171;28;20705;-66
2020/12/09 07:50:08;;;;;;;34.67;16.60;;;;;;;5.78;100.00;95526.56;5072289;28;20577;-66
2020/12/09 07:52:37;;;;;;;51.47;24.47;;;;;;;5.69;100.00;95525.53;5072289;28;20199;-67
2020/12/09 07:55:06;;;;;;;71.80;30.97;;;;;;;5.70;100.00;95529.69;5072337;28;20206;-67
2020/12/09 07:57:34;;;;;;;96.90;34.53;;;;;;;5.75;100.00;95536.63;5072463;28;20656;-67
2020/12/09 08:00:04;;;;;;;105.07;37.63;;;;;;;5.59;100.00;95548.75;5072489;28;20196;-68
2020/12/09 08:02:31;;;;;;;153.97;51.53;;;;;;;5.66;100.00;95549.28;5072334;28;20199;-67
2020/12/09 08:05:12;;;;;;;65.57;28.47;;;;;;;5.71;100.00;95548.50;5072045;28;20614;-68
2020/12/09 08:08:05;;;;;;;85.17;31.57;;;;;;;5.70;100.00;95544.38;5072087;28;20250;-67
2020/12/09 08:10:34;;;;;;;42.97;17.87;;;;;;;5.75;100.00;95542.56;5072277;28;20275;-68
2020/12/09 08:13:03;;;;;;;57.97;20.20;;;;;;;5.76;100.00;95543.34;5072102;28;20273;-68
2020/12/09 08:15:31;;;;;;;42.40;18.10;;;;;;;5.77;100.00;95540.50;5071934;28;20197;-66
2020/12/09 08:17:58;;;;;;;117.77;41.53;;;;;;;5.76;100.00;95538.94;5072014;28;20280;-68
2020/12/09 08:20:26;;;;;;;71.83;35.30;;;;;;;5.74;100.00;95546.16;5071908;28;20288;-68
2020/12/09 08:22:55;;;;;;;44.40;25.53;;;;;;;5.70;100.00;95545.16;5071672;28;20192;-67
2020/12/09 08:25:23;;;;;;;51.17;24.63;;;;;;;5.71;100.00;95545.91;5071432;28;20641;-68
2020/12/09 08:27:50;;;;;;;120.17;41.30;;;;;;;5.71;100.00;95533.03;5071489;28;20197;-64
2020/12/09 08:30:19;;;;;;;58.60;26.00;;;;;;;5.72;100.00;95537.94;5071393;28;20695;-65
2020/12/09 08:33:04;;;;;;;56.50;26.73;;;;;;;5.75;100.00;95547.72;5071509;28;20203;-65
2020/12/09 08:35:47;;;;;;;71.93;30.33;;;;;;;5.67;100.00;95550.06;5071606;28;20188;-67
2020/12/09 08:38:43;;;;;;;38.67;18.53;;;;;;;5.60;100.00;95555.47;5071453;28;20195;-67
2020/12/09 08:41:11;;;;;;;44.13;21.17;;;;;;;5.69;100.00;95556.47;5067576;28;20311;-67
2020/12/09 08:43:40;;;;;;;48.30;22.93;;;;;;;5.64;100.00;95551.34;5070863;28;20200;-64
2020/12/09 08:46:09;;;;;;;45.80;22.13;;;;;;;5.56;100.00;95555.22;5071513;28;20264;-67
2020/12/09 08:48:40;;;;;;;52.73;23.97;;;;;;;5.74;100.00;95551.31;5071347;28;20589;-67
2020/12/09 08:51:09;;;;;;;61.13;27.53;;;;;;;5.74;100.00;95551.31;5071166;28;20210;-67
2020/12/09 08:53:36;;;;;;;47.27;23.17;;;;;;;5.71;100.00;95554.44;5071277;28;20288;-67
2020/12/09 08:56:03;;;;;;;44.00;21.77;;;;;;;5.71;100.00;95554.44;5071250;28;20192;-67
2020/12/09 08:58:30;;;;;;;41.77;22.87;;;;;;;5.62;100.00;95543.09;5070398;28;20284;-68
2020/12/09 09:00:57;;;;;;;40.13;20.80;;;;;;;5.64;100.00;95553.91;5070970;28;20201;-68
2020/12/09 09:03:25;;;;;;;74.33;34.33;;;;;;;5.74;100.00;95545.38;5070874;28;20193;-68
2020/12/09 09:05:54;;;;;;;65.47;31.93;;;;;;;5.71;100.00;95546.69;5070942;28;20224;-68
2020/12/09 09:08:22;;;;;;;51.80;26.60;;;;;;;5.69;100.00;95542.81;5070851;28;20660;-67
2020/12/09 09:10:49;;;;;;;66.83;31.43;;;;;;;5.77;100.00;95537.91;5070857;28;20235;-66
2020/12/09 09:13:16;;;;;;;37.83;20.17;;;;;;;5.66;100.00;95528.66;5070696;28;20285;-67
2020/12/09 09:15:43;;;;;;;44.77;22.67;;;;;;;5.74;100.00;95515.22;5070759;28;20193;-67
2020/12/09 09:18:10;;;;;;;41.27;22.97;;;;;;;5.65;100.00;95511.63;5070784;28;20293;-67
2020/12/09 09:20:37;;;;;;;60.20;28.53;;;;;;;5.72;100.00;95494.09;5070746;28;20280;-68
2020/12/09 09:23:06;;;;;;;52.63;27.27;;;;;;;5.68;100.00;95498.22;5070668;28;20192;-67
2020/12/09 09:25:35;;;;;;;54.17;26.60;;;;;;;5.76;100.00;95494.34;5070496;28;20234;-66
2020/12/09 09:28:02;;;;;;;50.87;24.37;;;;;;;5.83;100.00;95503.34;5070797;28;20199;-66
2020/12/09 09:30:29;;;;;;;53.93;28.13;;;;;;;5.74;100.00;95504.91;5070539;28;20222;-64
2020/12/09 09:32:56;;;;;;;64.33;31.83;;;;;;;5.82;100.00;95509.53;5070463;28;20193;-67
2020/12/09 09:35:23;;;;;;;59.50;29.83;;;;;;;5.87;100.00;95498.47;5070322;28;20682;-67
2020/12/09 09:37:50;;;;;;;53.03;26.17;;;;;;;5.99;100.00;95496.34;5070316;28;20196;-67
2020/12/09 09:40:17;;;;;;;38.87;20.47;;;;;;;5.98;100.00;95497.38;5070339;28;20240;-65
2020/12/09 09:42:44;;;;;;;45.17;22.57;;;;;;;6.00;100.00;95505.63;5070553;28;20200;-67
2020/12/09 09:45:11;;;;;;;46.40;25.37;;;;;;;6.05;100.00;95485.00;5070300;28;20219;-67
2020/12/09 09:47:39;;;;;;;48.70;25.87;;;;;;;6.09;100.00;95482.66;5070499;28;20193;-66
2020/12/09 09:50:07;;;;;;;37.67;19.80;;;;;;;6.17;100.00;95477.72;5070632;28;20578;-66
2020/12/09 09:52:35;;;;;;;72.03;36.37;;;;;;;6.28;100.00;95466.28;5070623;28;20203;-67
2020/12/09 09:55:02;;;;;;;67.67;34.63;;;;;;;6.29;100.00;95464.50;5070375;28;20202;-67
2020/12/09 09:57:29;;;;;;;48.70;27.00;;;;;;;6.28;100.00;95463.72;5070090;28;20279;-66
2020/12/09 09:59:57;;;;;;;69.10;35.30;;;;;;;6.18;100.00;95473.31;5070739;28;20195;-68
2020/12/09 10:02:24;;;;;;;43.70;21.70;;;;;;;6.11;100.00;95467.69;5070202;28;20228;-68
2020/12/09 10:04:51;;;;;;;48.27;25.67;;;;;;;6.17;100.00;95466.63;5069849;28;20279;-68
2020/12/09 10:07:17;;;;;;;54.73;29.13;;;;;;;6.18;100.00;95473.31;5070299;28;20193;-66
2020/12/09 10:09:44;;;;;;;64.33;33.03;;;;;;;6.18;100.00;95468.16;5069986;28;20203;-67
2020/12/09 10:12:11;;;;;;;38.70;22.40;;;;;;;6.08;100.00;95447.59;5069357;28;20706;-67
2020/12/09 10:14:38;;;;;;;46.80;24.70;;;;;;;6.05;100.00;95444.50;5069906;28;20802;-67
2020/12/09 10:17:05;;;;;;;53.93;29.70;;;;;;;6.13;100.00;95439.81;5070051;28;20192;-67
2020/12/09 10:19:32;;;;;;;49.10;27.03;;;;;;;6.15;100.00;95446.25;5069891;28;20188;-67
2020/12/09 10:22:01;;;;;;;48.77;26.67;;;;;;;6.25;100.00;95441.03;5070266;28;20188;-67
2020/12/09 10:24:28;;;;;;;40.23;22.40;;;;;;;6.27;100.00;95435.63;5069958;28;20201;-67
2020/12/09 10:26:55;;;;;;;45.87;23.27;;;;;;;6.16;100.00;95434.13;5069878;28;20228;-68
2020/12/09 10:29:22;;;;;;;57.47;29.00;;;;;;;6.13;100.00;95439.81;5069936;28;20295;-67
2020/12/09 10:31:50;;;;;;;40.00;21.23;;;;;;;6.25;100.00;95430.72;5069790;28;20193;-68
2020/12/09 10:34:21;;;;;;;30.37;16.27;;;;;;;6.16;100.00;95424.56;5069632;28;20561;-68
2020/12/09 10:36:51;;;;;;;25.37;13.83;;;;;;;6.14;100.00;95415.56;5069708;28;20667;-68
2020/12/09 10:39:20;;;;;;;39.77;22.47;;;;;;;6.19;100.00;95403.41;5070154;28;20293;-66
2020/12/09 10:41:47;;;;;;;32.43;18.10;;;;;;;6.25;100.00;95406.72;5069535;28;20228;-67
2020/12/09 10:44:14;;;;;;;22.27;13.10;;;;;;;6.28;100.00;95409.53;5069658;28;20283;-68
2020/12/09 10:46:42;;;;;;;31.43;17.53;;;;;;;6.40;100.00;95406.63;5070181;28;20264;-68
2020/12/09 10:49:10;;;;;;;32.63;19.03;;;;;;;6.33;100.00;95404.34;5069657;28;20199;-67
2020/12/09 10:51:44;;;;;;;26.43;14.77;;;;;;;6.33;100.00;95400.97;5069560;28;20239;-68
2020/12/09 10:54:11;;;;;;;31.83;16.50;;;;;;;6.41;99.62;95406.38;5069677;28;20279;-68
2020/12/09 10:56:37;;;;;;;31.87;18.70;;;;;;;6.43;100.00;95398.34;5069512;28;20592;-68
2020/12/09 10:59:04;;;;;;;28.23;15.13;;;;;;;6.36;100.00;95400.47;5069922;28;20277;-67
2020/12/09 11:01:33;;;;;;;32.47;19.90;;;;;;;6.36;100.00;95393.50;5069827;28;20194;-68
2020/12/09 11:04:02;;;;;;;22.73;13.83;;;;;;;6.42;99.57;95392.44;5069449;28;20196;-67
2020/12/09 11:06:30;;;;;;;27.57;16.27;;;;;;;6.35;99.83;95386.78;5069335;28;20334;-67
2020/12/09 11:08:58;;;;;;;24.83;13.80;;;;;;;6.42;100.00;95396.81;5069459;28;20188;-67
2020/12/09 11:11:25;;;;;;;27.70;14.40;;;;;;;6.27;100.00;95397.69;5069341;28;20192;-68
2020/12/09 11:13:52;;;;;;;21.63;11.83;;;;;;;6.34;99.77;95382.66;5069303;28;20193;-67
2020/12/09 11:16:21;;;;;;;26.63;14.93;;;;;;;6.37;99.76;95383.94;5069387;28;20199;-68
2020/12/09 11:18:48;;;;;;;39.13;21.43;;;;;;;6.32;100.00;95373.66;5069388;28;20200;-68
2020/12/09 11:21:17;;;;;;;36.23;20.17;;;;;;;6.25;100.00;95373.19;5069287;28;20200;-67
2020/12/09 11:23:44;;;;;;;38.73;20.97;;;;;;;6.36;100.00;95366.91;5073074;28;20203;-68
2020/12/09 11:26:12;;;;;;;28.43;15.93;;;;;;;6.29;100.00;95366.44;5072731;28;20231;-67
2020/12/09 11:28:39;;;;;;;37.13;21.77;;;;;;;6.30;100.00;95373.16;5072981;28;20193;-67
2020/12/09 11:31:06;;;;;;;23.30;15.17;;;;;;;6.24;100.00;95372.41;5072521;28;20218;-68
2020/12/09 11:33:32;;;;;;;32.40;20.40;;;;;;;6.29;100.00;95374.94;5072627;28;20196;-67
2020/12/09 11:35:59;;;;;;;27.47;18.27;;;;;;;6.26;100.00;95375.50;5072575;28;20189;-68
2020/12/09 11:38:27;;;;;;;20.77;12.83;;;;;;;6.32;100.00;95368.50;5072566;28;20223;-68